createdAt,value
2019-03-01T00:00:09.829Z,69.48
2019-03-01T00:02:09.693Z,69.65
2019-03-01T00:06:09.862Z,69.28
2019-03-01T00:08:14.901Z,69.54
2019-03-01T00:12:09.894Z,69.26
2019-03-01T00:14:14.879Z,69.51
2019-03-01T00:18:09.718Z,69.26
2019-03-01T00:20:09.831Z,69.58
2019-03-01T00:24:09.848Z,69.31
2019-03-01T00:26:14.894Z,69.42
2019-03-01T00:30:09.972Z,69.11
2019-03-01T00:32:09.726Z,69.38
2019-03-01T00:36:09.827Z,69.19
2019-03-01T00:38:09.719Z,69.29
2019-03-01T00:42:09.881Z,69.34
2019-03-01T00:44:14.122Z,69.28
2019-03-01T00:48:09.922Z,69.35
2019-03-01T00:50:14.384Z,69.55
2019-03-01T00:54:09.753Z,69.60
2019-03-01T00:56:14.727Z,69.46
2019-03-01T01:00:09.745Z,69.40
2019-03-01T01:02:09.906Z,69.00
2019-03-01T01:06:10.884Z,69.53
2019-03-01T01:08:10.030Z,69.22
2019-03-01T01:12:09.906Z,69.56
2019-03-01T01:14:09.936Z,69.20
2019-03-01T01:18:09.984Z,69.12
2019-03-01T01:20:09.791Z,69.57
2019-03-01T01:24:09.905Z,69.21
2019-03-01T01:26:14.511Z,69.15
2019-03-01T01:30:09.981Z,69.17
2019-03-01T01:32:09.769Z,68.98
2019-03-01T01:36:09.938Z,69.16
2019-03-01T01:38:09.902Z,69.08
2019-03-01T01:42:09.934Z,69.40
2019-03-01T01:44:14.619Z,69.07
2019-03-01T01:48:09.818Z,69.47
2019-03-01T01:50:09.799Z,69.00
2019-03-01T01:54:09.846Z,69.02
2019-03-01T01:56:09.846Z,69.25
2019-03-01T02:00:09.849Z,69.11
2019-03-01T02:02:12.567Z,69.23
2019-03-01T02:06:15.056Z,69.19
2019-03-01T02:08:14.979Z,69.47
2019-03-01T02:12:09.879Z,69.07
2019-03-01T02:14:09.924Z,69.42
2019-03-01T02:18:09.995Z,69.50
2019-03-01T02:20:09.901Z,68.98
2019-03-01T02:24:15.069Z,69.30
2019-03-01T02:26:09.884Z,69.12
2019-03-01T02:30:13.960Z,69.18
2019-03-01T02:32:09.915Z,69.19
2019-03-01T02:36:09.901Z,69.33
2019-03-01T02:38:10.101Z,69.38
2019-03-01T02:42:09.942Z,69.13
2019-03-01T02:44:15.487Z,69.29
2019-03-01T02:48:09.942Z,69.26
2019-03-01T02:50:09.941Z,69.03
2019-03-01T02:54:09.964Z,69.34
2019-03-01T02:56:09.951Z,68.90
2019-03-01T03:00:10.005Z,69.32
2019-03-01T03:02:10.007Z,69.19
2019-03-01T03:06:10.016Z,68.97
2019-03-01T03:08:14.430Z,69.40
2019-03-01T03:12:10.049Z,69.16
2019-03-01T03:14:10.082Z,69.34
2019-03-01T03:18:10.042Z,69.08
2019-03-01T03:20:10.035Z,69.38
2019-03-01T03:24:10.033Z,69.22
2019-03-01T03:26:10.062Z,69.29
2019-03-01T03:30:10.099Z,69.45
2019-03-01T03:32:10.065Z,69.27
2019-03-01T03:36:10.084Z,69.16
2019-03-01T03:38:10.093Z,69.29
2019-03-01T03:42:10.106Z,69.27
2019-03-01T03:44:14.524Z,68.93
2019-03-01T03:48:10.108Z,69.23
2019-03-01T03:50:10.103Z,69.25
2019-03-01T03:54:10.115Z,68.98
2019-03-01T03:56:10.109Z,69.40
2019-03-01T04:00:10.140Z,68.73
2019-03-01T04:02:10.135Z,69.34
2019-03-01T04:06:10.149Z,69.19
2019-03-01T04:08:11.312Z,68.86
2019-03-01T04:12:10.325Z,69.39
2019-03-01T04:14:10.174Z,68.84
2019-03-01T04:18:10.164Z,68.95
2019-03-01T04:20:10.160Z,68.91
2019-03-01T04:24:10.183Z,69.32
2019-03-01T04:26:15.302Z,68.79
2019-03-01T04:30:14.516Z,69.34
2019-03-01T04:32:10.202Z,69.26
2019-03-01T04:36:10.183Z,69.05
2019-03-01T04:38:10.180Z,69.17
2019-03-01T04:42:10.197Z,68.84
2019-03-01T04:44:10.205Z,69.11
2019-03-01T04:48:10.216Z,69.02
2019-03-01T04:50:14.840Z,69.03
2019-03-01T04:54:10.221Z,69.37
2019-03-01T04:56:10.213Z,69.22
2019-03-01T05:00:10.276Z,68.84
2019-03-01T05:02:10.231Z,68.91
2019-03-01T05:06:10.244Z,68.80
2019-03-01T05:08:10.266Z,69.22
2019-03-01T05:12:10.259Z,69.02
2019-03-01T05:14:14.880Z,68.86
2019-03-01T05:18:10.254Z,69.01
2019-03-01T05:20:10.269Z,69.06
2019-03-01T05:24:10.265Z,69.04
2019-03-01T05:26:10.282Z,69.27
2019-03-01T05:30:10.279Z,69.20
2019-03-01T05:32:10.306Z,69.12
2019-03-01T05:36:10.256Z,69.16
2019-03-01T05:38:10.427Z,69.01
2019-03-01T05:42:11.515Z,69.05
2019-03-01T05:44:10.302Z,69.08
2019-03-01T05:48:12.347Z,68.98
2019-03-01T05:50:10.497Z,69.35
2019-03-01T05:54:14.005Z,68.72
2019-03-01T05:56:14.728Z,69.27
2019-03-01T06:00:10.329Z,69.08
2019-03-01T06:02:12.634Z,69.26
2019-03-01T06:06:15.380Z,69.14
2019-03-01T06:08:10.552Z,69.37
2019-03-01T06:12:10.428Z,69.20
2019-03-01T06:14:14.740Z,69.48
2019-03-01T06:18:10.354Z,69.08
2019-03-01T06:20:10.333Z,69.16
2019-03-01T06:24:10.364Z,69.27
2019-03-01T06:26:10.391Z,69.33
2019-03-01T06:30:10.382Z,69.34
2019-03-01T06:32:16.917Z,69.60
2019-03-01T06:36:10.395Z,69.30
2019-03-01T06:38:10.388Z,69.56
2019-03-01T06:42:10.408Z,69.30
2019-03-01T06:44:10.406Z,69.50
2019-03-01T06:48:12.723Z,69.47
2019-03-01T06:50:10.444Z,69.52
2019-03-01T06:54:10.404Z,69.37
2019-03-01T06:56:10.451Z,69.34
2019-03-01T07:00:10.438Z,69.25
2019-03-01T07:02:10.697Z,69.46
2019-03-01T07:06:12.759Z,69.06
2019-03-01T07:08:10.571Z,69.28
2019-03-01T07:12:12.514Z,69.15
2019-03-01T07:14:10.610Z,69.10
2019-03-01T07:18:15.497Z,69.24
2019-03-01T07:20:10.477Z,69.18
2019-03-01T07:24:12.609Z,69.31
2019-03-01T07:26:15.007Z,69.30
2019-03-01T07:30:10.524Z,69.42
2019-03-01T07:32:12.570Z,69.03
2019-03-01T07:36:10.503Z,69.01
2019-03-01T07:38:10.673Z,69.15
2019-03-01T07:42:10.521Z,69.16
2019-03-01T07:44:15.116Z,69.24
2019-03-01T07:48:10.558Z,69.18
2019-03-01T07:50:10.550Z,69.09
2019-03-01T07:54:13.239Z,69.10
2019-03-01T07:56:10.586Z,69.12
2019-03-01T08:00:10.844Z,69.08
2019-03-01T08:02:10.565Z,68.99
2019-03-01T08:06:13.558Z,69.04
2019-03-01T08:08:10.586Z,68.99
2019-03-01T08:12:10.569Z,69.19
2019-03-01T08:14:10.589Z,69.26
2019-03-01T08:18:10.581Z,69.36
2019-03-01T08:20:10.597Z,69.16
2019-03-01T08:24:15.071Z,69.04
2019-03-01T08:26:10.623Z,69.03
2019-03-01T08:30:11.279Z,68.56
2019-03-01T08:32:10.618Z,68.99
2019-03-01T08:36:10.627Z,68.87
2019-03-01T08:38:15.022Z,68.91
2019-03-01T08:42:14.475Z,69.01
2019-03-01T08:44:10.615Z,68.99
2019-03-01T08:48:10.612Z,68.95
2019-03-01T08:50:10.629Z,68.74
2019-03-01T08:54:15.233Z,68.88
2019-03-01T08:56:11.101Z,68.81
2019-03-01T09:00:10.621Z,69.12
2019-03-01T09:02:11.986Z,69.07
2019-03-01T09:06:10.639Z,69.00
2019-03-01T09:08:10.632Z,69.06
2019-03-01T09:12:10.634Z,68.90
2019-03-01T09:14:14.527Z,68.64
2019-03-01T09:18:11.603Z,68.81
2019-03-01T09:20:10.644Z,68.93
2019-03-01T09:24:15.848Z,69.00
2019-03-01T09:26:10.624Z,69.00
2019-03-01T09:30:10.639Z,68.86
2019-03-01T09:32:10.650Z,68.69
2019-03-01T09:36:10.655Z,68.77
2019-03-01T09:38:11.395Z,68.45
2019-03-01T09:42:12.361Z,68.69
2019-03-01T09:44:15.883Z,68.59
2019-03-01T09:48:12.220Z,68.64
2019-03-01T09:50:10.692Z,68.77
2019-03-01T09:54:10.754Z,68.90
2019-03-01T09:56:12.955Z,68.72
2019-03-01T10:00:10.697Z,68.47
2019-03-01T10:02:10.680Z,68.69
2019-03-01T10:06:10.695Z,68.71
2019-03-01T10:08:10.724Z,68.47
2019-03-01T10:12:10.710Z,68.80
2019-03-01T10:14:10.707Z,68.89
2019-03-01T10:18:10.781Z,68.64
2019-03-01T10:20:10.702Z,68.63
2019-03-01T10:24:10.737Z,68.81
2019-03-01T10:26:10.707Z,68.53
2019-03-01T10:30:10.748Z,68.44
2019-03-01T10:32:12.493Z,68.80
2019-03-01T10:36:10.769Z,68.70
2019-03-01T10:38:11.680Z,68.86
2019-03-01T10:42:10.734Z,68.72
2019-03-01T10:44:15.567Z,68.77
2019-03-01T10:48:10.751Z,68.77
2019-03-01T10:50:10.744Z,68.74
2019-03-01T10:54:10.801Z,68.62
2019-03-01T10:56:10.775Z,68.67
2019-03-01T11:00:10.795Z,68.64
2019-03-01T11:02:19.392Z,68.85
2019-03-01T11:06:10.817Z,68.61
2019-03-01T11:08:10.833Z,68.69
2019-03-01T11:12:10.816Z,68.74
2019-03-01T11:14:10.813Z,68.71
2019-03-01T11:18:10.839Z,68.79
2019-03-01T11:20:10.814Z,68.67
2019-03-01T11:24:10.886Z,68.77
2019-03-01T11:26:10.878Z,68.53
2019-03-01T11:30:10.897Z,68.69
2019-03-01T11:32:10.917Z,68.62
2019-03-01T11:36:10.894Z,68.73
2019-03-01T11:38:10.910Z,68.69
2019-03-01T11:42:10.923Z,68.47
2019-03-01T11:44:10.930Z,68.70
2019-03-01T11:48:10.940Z,68.42
2019-03-01T11:50:10.901Z,68.66
2019-03-01T11:54:12.800Z,68.46
2019-03-01T11:56:10.958Z,68.62
2019-03-01T12:00:10.970Z,68.63
2019-03-01T12:02:10.971Z,68.48
2019-03-01T12:06:10.990Z,68.70
2019-03-01T12:08:10.983Z,68.49
2019-03-01T12:12:11.025Z,68.58
2019-03-01T12:14:11.012Z,68.66
2019-03-01T12:18:11.062Z,68.68
2019-03-01T12:20:11.065Z,68.83
2019-03-01T12:24:11.078Z,68.72
2019-03-01T12:26:11.076Z,68.64
2019-03-01T12:30:11.073Z,68.63
2019-03-01T12:32:13.252Z,68.72
2019-03-01T12:36:11.076Z,68.80
2019-03-01T12:38:11.095Z,68.83
2019-03-01T12:42:11.379Z,68.65
2019-03-01T12:44:11.094Z,68.60
2019-03-01T12:48:11.091Z,68.62
2019-03-01T12:50:15.883Z,68.76
2019-03-01T12:54:11.128Z,68.82
2019-03-01T12:56:15.822Z,68.59
2019-03-01T13:00:11.107Z,68.70
2019-03-01T13:02:11.112Z,68.60
2019-03-01T13:06:11.137Z,68.72
2019-03-01T13:08:12.479Z,68.69
2019-03-01T13:12:11.108Z,68.53
2019-03-01T13:14:11.119Z,68.70
2019-03-01T13:18:15.770Z,68.75
2019-03-01T13:20:11.124Z,68.92
2019-03-01T13:24:12.679Z,68.84
2019-03-01T13:26:11.150Z,68.84
2019-03-01T13:30:15.632Z,68.62
2019-03-01T13:32:15.740Z,68.92
2019-03-01T13:36:13.248Z,68.58
2019-03-01T13:38:13.457Z,68.77
2019-03-01T13:42:20.810Z,68.64
2019-03-01T13:44:11.159Z,68.55
2019-03-01T13:48:11.150Z,68.74
2019-03-01T13:50:11.190Z,68.72
2019-03-01T13:54:17.972Z,68.71
2019-03-01T13:56:11.183Z,68.67
2019-03-01T14:00:11.172Z,68.62
2019-03-01T14:02:11.199Z,68.63
2019-03-01T14:06:32.442Z,68.63
2019-03-01T14:08:23.250Z,68.71
2019-03-01T14:12:11.206Z,68.64
2019-03-01T14:14:15.814Z,68.69
2019-03-01T14:18:11.230Z,68.74
2019-03-01T14:20:19.139Z,68.42
2019-03-01T14:24:11.217Z,68.63
2019-03-01T14:26:18.553Z,68.54
2019-03-01T14:30:11.215Z,68.70
2019-03-01T14:32:11.228Z,68.10
2019-03-01T14:36:11.228Z,68.16
2019-03-01T14:38:15.746Z,68.55
2019-03-01T14:42:11.805Z,68.52
2019-03-01T14:44:11.219Z,68.53
2019-03-01T14:48:11.253Z,68.56
2019-03-01T14:50:11.241Z,68.50
2019-03-01T14:54:16.445Z,68.48
2019-03-01T14:56:12.265Z,68.40
2019-03-01T15:00:12.957Z,68.67
2019-03-01T15:02:11.271Z,68.78
2019-03-01T15:06:18.961Z,68.41
2019-03-01T15:08:11.265Z,68.53
2019-03-01T15:12:11.252Z,68.43
2019-03-01T15:14:13.398Z,68.38
2019-03-01T15:18:11.300Z,68.29
2019-03-01T15:20:11.301Z,68.41
2019-03-01T15:24:11.331Z,68.40
2019-03-01T15:26:11.340Z,68.43
2019-03-01T15:30:11.337Z,68.38
2019-03-01T15:32:15.802Z,68.32
2019-03-01T15:36:13.714Z,68.39
2019-03-01T15:38:12.281Z,68.39
2019-03-01T15:42:14.271Z,68.46
2019-03-01T15:44:11.354Z,68.57
2019-03-01T15:48:11.378Z,68.41
2019-03-01T15:50:11.395Z,68.38
2019-03-01T15:54:15.997Z,68.32
2019-03-01T15:56:15.726Z,68.24
2019-03-01T16:00:11.353Z,68.36
2019-03-01T16:02:11.377Z,68.59
2019-03-01T16:06:14.097Z,68.47
2019-03-01T16:08:11.396Z,68.21
2019-03-01T16:12:11.392Z,68.40
2019-03-01T16:14:11.404Z,68.13
2019-03-01T16:18:11.413Z,68.48
2019-03-01T16:20:11.412Z,68.47
2019-03-01T16:24:11.437Z,68.18
2019-03-01T16:26:11.417Z,68.38
2019-03-01T16:30:14.612Z,68.37
2019-03-01T16:32:11.448Z,68.43
2019-03-01T16:36:11.453Z,67.97
2019-03-01T16:38:11.455Z,68.10
2019-03-01T16:42:17.923Z,68.06
2019-03-01T16:44:11.469Z,68.13
2019-03-01T16:48:13.638Z,68.21
2019-03-01T16:50:16.153Z,68.00
2019-03-01T16:54:16.571Z,68.06
2019-03-01T16:56:11.494Z,68.23
2019-03-01T17:00:14.672Z,67.96
2019-03-01T17:02:16.507Z,68.25
2019-03-01T17:06:13.761Z,67.75
2019-03-01T17:08:11.517Z,67.99
2019-03-01T17:12:13.896Z,68.10
2019-03-01T17:14:11.506Z,68.31
2019-03-01T17:18:12.413Z,67.78
2019-03-01T17:20:16.517Z,67.81
2019-03-01T17:24:12.273Z,67.83
2019-03-01T17:26:16.555Z,68.23
2019-03-01T17:30:14.332Z,68.42
2019-03-01T17:32:16.538Z,68.44
2019-03-01T17:36:20.651Z,68.21
2019-03-01T17:38:11.558Z,68.06
2019-03-01T17:42:11.551Z,67.88
2019-03-01T17:44:17.197Z,67.87
2019-03-01T17:48:11.550Z,67.61
2019-03-01T17:50:11.565Z,67.70
2019-03-01T17:54:15.539Z,67.49
2019-03-01T17:56:11.564Z,67.72
2019-03-01T18:00:11.562Z,67.49
2019-03-01T18:02:12.129Z,67.60
2019-03-01T18:06:12.896Z,68.08
2019-03-01T18:08:11.584Z,68.17
2019-03-01T18:14:11.593Z,67.63
2019-03-01T18:16:11.567Z,68.08
2019-03-01T18:20:16.570Z,67.83
2019-03-01T18:22:11.599Z,67.69
2019-03-01T18:26:16.252Z,67.53
2019-03-01T18:28:11.603Z,68.05
2019-03-01T18:32:11.621Z,67.75
2019-03-01T18:34:11.880Z,68.00
2019-03-01T18:38:11.621Z,67.66
2019-03-01T18:40:13.413Z,67.97
2019-03-01T18:44:11.614Z,67.76
2019-03-01T18:46:14.550Z,67.67
2019-03-01T18:50:11.653Z,67.86
2019-03-01T18:52:14.413Z,67.27
2019-03-01T18:56:11.640Z,67.87
2019-03-01T18:58:14.127Z,67.41
2019-03-01T19:02:11.651Z,67.23
2019-03-01T19:04:12.975Z,67.81
2019-03-01T19:08:11.661Z,67.61
2019-03-01T19:10:11.653Z,67.39
2019-03-01T19:14:11.684Z,67.99
2019-03-01T19:16:11.670Z,67.88
2019-03-01T19:20:11.694Z,67.81
2019-03-01T19:22:11.706Z,67.28
2019-03-01T19:26:11.687Z,67.75
2019-03-01T19:28:11.725Z,67.32
2019-03-01T19:32:11.726Z,67.50
2019-03-01T19:34:17.092Z,67.96
2019-03-01T19:38:11.866Z,67.23
2019-03-01T19:40:11.766Z,67.77
2019-03-01T19:44:11.709Z,67.15
2019-03-01T19:46:20.616Z,67.46
2019-03-01T19:50:11.730Z,67.07
2019-03-01T19:52:12.134Z,67.40
2019-03-01T19:56:11.723Z,67.16
2019-03-01T19:58:12.721Z,67.75
2019-03-01T20:02:11.724Z,67.18
2019-03-01T20:04:11.757Z,67.73
2019-03-01T20:08:11.740Z,67.76
2019-03-01T20:10:14.926Z,67.07
2019-03-01T20:14:11.749Z,67.28
2019-03-01T20:16:11.757Z,67.56
2019-03-01T20:20:11.743Z,67.18
2019-03-01T20:22:11.759Z,67.16
2019-03-01T20:26:11.756Z,67.12
2019-03-01T20:28:15.072Z,67.68
2019-03-01T20:32:12.622Z,67.86
2019-03-01T20:34:11.773Z,67.69
2019-03-01T20:38:11.766Z,67.18
2019-03-01T20:40:11.786Z,67.59
2019-03-01T20:44:14.703Z,67.23
2019-03-01T20:46:16.967Z,67.62
2019-03-01T20:50:15.365Z,67.25
2019-03-01T20:52:11.779Z,67.68
2019-03-01T20:56:13.807Z,67.64
2019-03-01T20:58:16.744Z,67.57
2019-03-01T21:02:12.795Z,67.75
2019-03-01T21:04:11.809Z,67.43
2019-03-01T21:08:11.786Z,67.30
2019-03-01T21:10:12.594Z,67.74
2019-03-01T21:14:11.813Z,67.20
2019-03-01T21:16:11.805Z,67.36
2019-03-01T21:20:11.843Z,67.01
2019-03-01T21:22:11.850Z,67.73
2019-03-01T21:26:15.234Z,67.03
2019-03-01T21:28:11.835Z,67.33
2019-03-01T21:32:14.566Z,67.40
2019-03-01T21:34:11.866Z,67.35
2019-03-01T21:38:13.853Z,67.67
2019-03-01T21:40:11.881Z,67.37
2019-03-01T21:44:16.811Z,67.66
2019-03-01T21:46:11.884Z,67.43
2019-03-01T21:50:19.042Z,67.26
2019-03-01T21:52:16.892Z,67.04
2019-03-01T21:56:11.916Z,67.28
2019-03-01T21:58:16.960Z,67.64
2019-03-01T22:02:13.679Z,67.63
2019-03-01T22:04:11.900Z,67.83
2019-03-01T22:10:11.940Z,67.37
2019-03-01T22:12:11.922Z,67.51
2019-03-01T22:16:11.970Z,67.53
2019-03-01T22:18:11.965Z,67.06
2019-03-01T22:22:12.005Z,67.34
2019-03-01T22:24:11.999Z,67.15
2019-03-01T22:28:12.017Z,67.19
2019-03-01T22:30:12.019Z,67.30
2019-03-01T22:34:12.039Z,67.58
2019-03-01T22:38:12.039Z,67.44
2019-03-01T22:40:12.056Z,67.51
2019-03-01T22:44:14.483Z,67.23
2019-03-01T22:46:14.163Z,67.43
2019-03-01T22:50:12.042Z,67.38
2019-03-01T22:52:14.202Z,67.21
2019-03-01T22:56:12.874Z,67.39
2019-03-01T22:58:17.075Z,67.74
2019-03-01T23:02:12.074Z,67.62
2019-03-01T23:04:12.060Z,67.58
2019-03-01T23:08:12.078Z,67.44
2019-03-01T23:10:12.071Z,67.06
2019-03-01T23:14:12.090Z,67.45
2019-03-01T23:16:12.089Z,67.27
2019-03-01T23:20:12.106Z,67.39
2019-03-01T23:22:12.094Z,67.28
2019-03-01T23:26:12.136Z,67.32
2019-03-01T23:28:12.140Z,67.26
2019-03-01T23:32:15.394Z,67.47
2019-03-01T23:34:12.174Z,67.14
2019-03-01T23:38:14.989Z,67.10
2019-03-01T23:40:12.163Z,67.10
2019-03-01T23:44:12.178Z,67.43
2019-03-01T23:46:12.178Z,67.75
2019-03-01T23:50:12.169Z,67.29
2019-03-01T23:52:12.185Z,67.12
2019-03-01T23:56:13.063Z,67.55
2019-03-01T23:58:12.631Z,67.65
